Time;durP1;ratioP1;P1;durP2;ratioP2;P2;SDS_P1;SDS_P2;PMS_P1;PMS_P2;Temp;Humidity;BMP_temperature;BMP_pressure;BME280_temperature;BME280_humidity;BME280_pressure;Samples;Min_cycle;Max_cycle;Signal;HPM_P1;HPM_P2
2020/12/16 00:02:17;;;;;;;63.20;9.07;;;3.90;99.90;;;;;;8297102;28;20395;-71
2020/12/16 00:06:18;;;;;;;62.20;9.20;;;3.90;99.90;;;;;;8297545;28;20036;-72
2020/12/16 00:10:18;;;;;;;59.70;10.35;;;4.20;99.90;;;;;;8297132;28;20109;-72
2020/12/16 00:14:19;;;;;;;127.05;12.25;;;4.10;99.90;;;;;;8295767;28;20030;-71
2020/12/16 00:18:21;;;;;;;49.90;11.32;;;4.00;99.90;;;;;;8297106;28;20046;-71
2020/12/16 00:22:21;;;;;;;74.60;12.07;;;4.10;99.90;;;;;;8296738;28;20080;-71
2020/12/16 00:26:22;;;;;;;90.95;13.27;;;4.00;99.90;;;;;;8295540;28;20499;-72
2020/12/16 00:30:22;;;;;;;59.83;11.60;;;3.90;99.90;;;;;;8296304;28;20026;-72
2020/12/16 00:34:23;;;;;;;38.67;12.65;;;4.10;99.90;;;;;;8311048;28;20042;-72
2020/12/16 00:38:23;;;;;;;23.40;13.20;;;4.20;99.90;;;;;;8296618;28;20025;-71
2020/12/16 00:42:24;;;;;;;17.90;11.73;;;4.00;99.90;;;;;;8294798;28;20022;-72
2020/12/16 00:46:25;;;;;;;20.50;12.18;;;4.10;99.90;;;;;;8311451;28;20121;-71
2020/12/16 00:50:25;;;;;;;18.42;11.27;;;4.40;99.90;;;;;;8295913;28;20476;-71
2020/12/16 00:54:26;;;;;;;24.17;14.02;;;4.40;99.90;;;;;;8295697;28;20057;-72
2020/12/16 00:58:26;;;;;;;19.25;11.95;;;4.20;99.90;;;;;;8296144;28;20029;-72
2020/12/16 01:02:27;;;;;;;18.23;11.60;;;4.00;99.90;;;;;;8295511;28;20084;-72
2020/12/16 01:06:27;;;;;;;17.48;11.52;;;4.00;99.90;;;;;;8295735;28;20037;-72
2020/12/16 01:10:28;;;;;;;20.67;13.05;;;3.90;99.90;;;;;;8295560;28;20030;-71
2020/12/16 01:14:29;;;;;;;41.72;12.90;;;4.20;99.90;;;;;;8293763;28;20061;-71
2020/12/16 01:18:30;;;;;;;18.80;11.25;;;4.20;99.90;;;;;;8295424;28;20241;-72
2020/12/16 01:22:30;;;;;;;17.38;10.60;;;4.10;99.90;;;;;;8293987;28;20041;-72
2020/12/16 01:26:40;;;;;;;18.67;10.35;;;3.90;99.90;;;;;;8295214;28;20103;-72
2020/12/16 01:30:41;;;;;;;17.88;10.80;;;3.60;99.90;;;;;;8293470;28;20037;-72
2020/12/16 01:34:41;;;;;;;17.45;11.35;;;3.80;99.90;;;;;;8309657;28;20058;-71
2020/12/16 01:38:42;;;;;;;22.15;11.45;;;3.80;99.90;;;;;;8309871;28;20025;-71
2020/12/16 01:42:42;;;;;;;30.88;12.20;;;3.70;99.90;;;;;;8294364;28;20072;-71
2020/12/16 01:46:50;;;;;;;44.63;12.23;;;3.90;99.90;;;;;;8310340;28;20457;-71
2020/12/16 01:50:50;;;;;;;65.95;13.57;;;3.80;99.90;;;;;;8294517;28;20101;-71
2020/12/16 01:54:53;;;;;;;29.85;13.25;;;3.60;99.90;;;;;;8294478;28;20026;-71
2020/12/16 01:58:55;;;;;;;27.30;11.65;;;3.60;99.90;;;;;;8294349;28;20029;-71
2020/12/16 02:03:00;;;;;;;21.33;12.07;;;3.70;99.90;;;;;;8309766;28;20495;-72
2020/12/16 02:07:05;;;;;;;22.67;12.65;;;3.60;99.90;;;;;;8294463;28;20029;-72
2020/12/16 02:11:07;;;;;;;23.85;13.27;;;3.50;99.90;;;;;;8294313;28;20518;-71
2020/12/16 02:15:09;;;;;;;21.15;11.05;;;3.40;99.90;;;;;;8293982;28;20403;-71
2020/12/16 02:19:10;;;;;;;26.02;13.70;;;3.40;99.90;;;;;;8294147;28;20480;-71
2020/12/16 02:23:18;;;;;;;24.50;12.30;;;3.70;99.90;;;;;;8293153;28;20026;-71
2020/12/16 02:27:19;;;;;;;19.80;11.27;;;3.60;99.90;;;;;;8292881;28;20026;-72
2020/12/16 02:31:20;;;;;;;24.33;13.40;;;3.60;99.90;;;;;;8293318;28;20467;-72
2020/12/16 02:35:21;;;;;;;23.90;12.85;;;3.50;99.90;;;;;;8294036;28;20030;-72
2020/12/16 02:39:21;;;;;;;25.02;12.80;;;3.30;99.90;;;;;;8292735;28;20033;-71
2020/12/16 02:43:22;;;;;;;25.95;13.88;;;3.40;99.90;;;;;;8294041;28;20029;-72
2020/12/16 02:47:24;;;;;;;16.60;10.38;;;3.50;99.90;;;;;;8293834;28;20033;-72
2020/12/16 02:51:24;;;;;;;35.35;10.93;;;3.50;99.90;;;;;;8292400;28;20022;-71
2020/12/16 02:55:25;;;;;;;25.10;11.93;;;3.70;99.90;;;;;;8296502;28;20026;-72
2020/12/16 02:59:26;;;;;;;30.65;11.85;;;3.60;99.90;;;;;;8299264;28;20075;-72
2020/12/16 03:03:27;;;;;;;70.32;13.82;;;3.60;99.90;;;;;;8299559;28;20097;-71
2020/12/16 03:07:28;;;;;;;41.80;13.18;;;3.50;99.90;;;;;;8299358;28;20514;-72
2020/12/16 03:11:28;;;;;;;85.35;14.35;;;3.40;99.90;;;;;;8298841;28;20053;-71
2020/12/16 03:15:29;;;;;;;69.90;13.63;;;3.40;99.90;;;;;;8298581;28;20037;-71
2020/12/16 03:19:29;;;;;;;30.90;12.05;;;3.20;99.90;;;;;;8298870;28;20495;-71
2020/12/16 03:23:30;;;;;;;67.57;13.55;;;3.30;99.90;;;;;;8298883;28;20045;-72
2020/12/16 03:27:30;;;;;;;170.00;15.60;;;3.20;99.90;;;;;;8313900;28;20037;-72
2020/12/16 03:31:31;;;;;;;154.27;15.27;;;3.10;99.90;;;;;;8297976;28;20056;-71
2020/12/16 03:35:31;;;;;;;97.72;14.40;;;3.10;99.90;;;;;;8298548;28;20041;-71
2020/12/16 03:39:32;;;;;;;37.10;12.50;;;3.10;99.90;;;;;;8297036;28;20033;-71
2020/12/16 03:43:32;;;;;;;38.95;13.13;;;3.00;99.90;;;;;;8298503;28;20037;-72
2020/12/16 03:47:33;;;;;;;133.38;14.02;;;2.90;99.90;;;;;;8298226;28;20466;-71
2020/12/16 03:51:33;;;;;;;115.25;13.85;;;3.10;99.90;;;;;;8297618;28;20040;-71
2020/12/16 03:55:34;;;;;;;31.83;12.52;;;3.40;99.90;;;;;;8297998;28;20119;-71
2020/12/16 03:59:34;;;;;;;91.28;14.15;;;3.30;99.90;;;;;;8297508;28;20038;-71
2020/12/16 04:03:35;;;;;;;70.50;14.70;;;3.00;99.90;;;;;;8297712;28;20030;-71
2020/12/16 04:07:36;;;;;;;48.95;14.75;;;3.00;99.90;;;;;;8295338;28;20034;-72
2020/12/16 04:11:36;;;;;;;34.63;14.07;;;3.00;99.90;;;;;;8297044;28;20030;-71
2020/12/16 04:15:37;;;;;;;21.20;13.85;;;3.00;99.90;;;;;;8297039;28;20030;-72
2020/12/16 04:19:37;;;;;;;31.45;14.48;;;3.20;99.90;;;;;;8296923;28;20480;-72
2020/12/16 04:23:38;;;;;;;27.10;13.35;;;3.30;99.90;;;;;;8296966;28;20026;-71
2020/12/16 04:27:39;;;;;;;20.92;12.88;;;3.70;99.90;;;;;;8296731;28;20030;-72
2020/12/16 04:31:39;;;;;;;18.40;11.95;;;3.70;99.90;;;;;;8295852;28;20052;-71
2020/12/16 04:35:40;;;;;;;20.17;12.40;;;3.50;99.90;;;;;;8296649;28;20022;-72
2020/12/16 04:39:40;;;;;;;16.13;10.95;;;3.20;99.90;;;;;;8296355;28;20029;-72
2020/12/16 04:43:43;;;;;;;17.80;12.43;;;3.30;99.90;;;;;;8295623;28;20032;-72
2020/12/16 04:47:49;;;;;;;18.58;11.73;;;3.30;99.90;;;;;;8311589;28;20088;-71
2020/12/16 04:51:50;;;;;;;20.60;12.70;;;3.40;99.90;;;;;;8294803;28;20025;-71
2020/12/16 04:55:52;;;;;;;18.25;12.30;;;3.40;99.90;;;;;;8294570;28;20030;-72
2020/12/16 04:59:56;;;;;;;17.65;11.90;;;3.50;99.90;;;;;;8295141;28;20053;-72
2020/12/16 05:03:56;;;;;;;17.92;12.00;;;3.70;99.90;;;;;;8294362;28;20033;-72
2020/12/16 05:07:57;;;;;;;19.33;12.25;;;3.60;99.90;;;;;;8294944;28;20548;-72
2020/12/16 05:11:57;;;;;;;19.65;11.63;;;3.70;99.90;;;;;;8293939;28;20502;-72
2020/12/16 05:16:01;;;;;;;16.77;11.52;;;3.70;99.90;;;;;;8295352;28;20060;-72
2020/12/16 05:20:07;;;;;;;15.95;11.05;;;3.70;99.90;;;;;;8294579;28;20561;-72
2020/12/16 05:24:11;;;;;;;19.08;11.90;;;3.80;99.90;;;;;;8295301;28;20030;-72
2020/12/16 05:28:26;;;;;;;16.77;11.13;;;4.10;99.90;;;;;;8293818;28;20037;-71
2020/12/16 05:32:32;;;;;;;18.08;11.23;;;4.30;99.90;;;;;;8294331;28;20045;-72
2020/12/16 05:36:32;;;;;;;17.92;11.55;;;4.30;99.90;;;;;;8292808;28;20521;-72
2020/12/16 05:40:36;;;;;;;13.68;9.80;;;4.20;99.90;;;;;;8307832;28;20018;-70
2020/12/16 05:44:36;;;;;;;18.05;11.40;;;4.10;99.90;;;;;;8292988;28;20025;-70
2020/12/16 05:48:38;;;;;;;16.23;11.00;;;4.20;99.90;;;;;;8293500;28;20438;-72
2020/12/16 05:52:38;;;;;;;18.77;11.13;;;4.00;99.90;;;;;;8293248;28;20475;-75
2020/12/16 05:56:39;;;;;;;17.42;11.52;;;4.00;99.90;;;;;;8293993;28;20076;-72
2020/12/16 06:00:46;;;;;;;17.33;11.07;;;3.90;99.90;;;;;;8291614;28;20510;-72
2020/12/16 06:04:46;;;;;;;17.35;11.48;;;4.10;99.90;;;;;;8309604;28;20080;-72
2020/12/16 06:08:47;;;;;;;19.60;10.98;;;4.20;99.90;;;;;;8294261;28;20026;-75
2020/12/16 06:12:47;;;;;;;16.50;11.07;;;4.20;99.90;;;;;;8294233;28;20485;-73
2020/12/16 06:16:48;;;;;;;17.58;11.32;;;4.30;99.90;;;;;;8293118;28;20072;-72
2020/12/16 06:20:49;;;;;;;21.27;12.43;;;4.40;99.90;;;;;;8294110;28;20616;-72
2020/12/16 06:24:54;;;;;;;17.42;11.85;;;4.40;99.90;;;;;;8292703;28;20112;-72
2020/12/16 06:28:59;;;;;;;18.30;11.45;;;4.40;99.90;;;;;;8294414;28;20718;-72
2020/12/16 06:33:11;;;;;;;15.27;10.38;;;4.70;99.90;;;;;;8299302;28;20037;-74
2020/12/16 06:37:17;;;;;;;18.88;11.13;;;4.70;99.90;;;;;;8300372;28;20029;-73
2020/12/16 06:41:23;;;;;;;17.33;11.23;;;4.50;99.90;;;;;;8298405;28;20125;-73
2020/12/16 06:45:32;;;;;;;18.23;10.95;;;4.30;99.90;;;;;;8298877;28;20545;-75
2020/12/16 06:49:34;;;;;;;19.50;10.75;;;4.40;99.90;;;;;;8298347;28;20061;-76
2020/12/16 06:53:34;;;;;;;18.95;10.73;;;4.40;99.90;;;;;;8299463;28;20036;-74
2020/12/16 06:57:49;;;;;;;20.67;12.20;;;4.50;99.90;;;;;;8298440;28;20499;-72
2020/12/16 07:02:09;;;;;;;19.17;11.40;;;4.30;99.90;;;;;;8298143;28;20030;-73
2020/12/16 07:06:12;;;;;;;32.55;13.93;;;4.10;99.90;;;;;;8302075;28;20040;-73
2020/12/16 07:10:34;;;;;;;29.00;13.68;;;4.30;99.90;;;;;;8312215;28;20444;-73
2020/12/16 07:14:35;;;;;;;29.13;12.60;;;4.30;99.90;;;;;;8331921;28;20033;-73
2020/12/16 07:18:38;;;;;;;31.15;13.88;;;4.30;99.90;;;;;;8327108;28;20073;-73
2020/12/16 07:22:40;;;;;;;30.35;13.60;;;4.40;99.90;;;;;;8292597;28;20069;-74
2020/12/16 07:26:50;;;;;;;24.52;13.10;;;4.50;99.90;;;;;;8265983;28;20098;-73
2020/12/16 07:30:52;;;;;;;19.17;11.93;;;4.60;99.90;;;;;;8280987;28;20033;-72
2020/12/16 07:34:58;;;;;;;23.55;12.90;;;4.80;99.90;;;;;;8297071;28;20032;-72
2020/12/16 07:38:58;;;;;;;22.63;12.18;;;4.60;99.90;;;;;;8313005;28;20026;-72
2020/12/16 07:42:59;;;;;;;20.08;12.27;;;4.80;99.90;;;;;;8295400;28;20065;-72
2020/12/16 07:47:01;;;;;;;21.83;12.55;;;4.90;99.90;;;;;;8292379;28;20088;-73
2020/12/16 07:51:07;;;;;;;22.60;12.68;;;4.90;99.90;;;;;;8296991;28;20088;-75
2020/12/16 07:55:08;;;;;;;23.85;13.13;;;4.80;99.90;;;;;;8295245;28;20108;-72
2020/12/16 07:59:15;;;;;;;24.33;13.35;;;5.00;99.90;;;;;;8293438;28;20092;-76
2020/12/16 08:03:17;;;;;;;23.05;11.77;;;5.20;99.90;;;;;;8282983;28;20514;-73
2020/12/16 08:07:19;;;;;;;22.70;12.35;;;5.30;99.90;;;;;;8285486;28;20029;-73
2020/12/16 08:11:22;;;;;;;22.52;12.13;;;5.40;99.90;;;;;;8293924;28;20026;-74
2020/12/16 08:15:22;;;;;;;26.20;13.70;;;5.60;99.90;;;;;;8294143;28;20473;-74
2020/12/16 08:19:23;;;;;;;31.10;15.57;;;5.70;99.90;;;;;;8271801;28;20030;-72
2020/12/16 08:23:24;;;;;;;27.50;15.63;;;5.80;99.90;;;;;;8272673;28;20379;-72
2020/12/16 08:27:24;;;;;;;23.20;14.25;;;5.90;99.90;;;;;;8272625;28;20034;-72
2020/12/16 08:31:29;;;;;;;32.17;19.95;;;6.10;99.90;;;;;;8273523;28;20049;-72
2020/12/16 08:35:41;;;;;;;30.63;17.75;;;5.80;99.90;;;;;;8295908;28;20116;-74
2020/12/16 08:39:43;;;;;;;25.60;15.13;;;6.00;99.90;;;;;;8282419;28;20022;-71
2020/12/16 08:43:46;;;;;;;26.02;16.17;;;6.20;99.90;;;;;;8275393;28;20073;-74
2020/12/16 08:47:46;;;;;;;24.00;15.52;;;6.40;99.90;;;;;;8289050;28;20399;-73
2020/12/16 08:51:47;;;;;;;24.77;14.77;;;6.60;99.90;;;;;;8285930;28;20026;-72
2020/12/16 08:55:48;;;;;;;21.52;13.63;;;6.70;99.90;;;;;;8273083;28;20022;-72
2020/12/16 08:59:48;;;;;;;21.05;13.77;;;7.00;99.90;;;;;;8287229;28;20029;-73
2020/12/16 09:03:52;;;;;;;20.58;14.38;;;7.30;99.90;;;;;;8293352;28;20065;-73
2020/12/16 09:08:06;;;;;;;21.23;13.77;;;7.40;99.90;;;;;;8286008;28;20058;-72
2020/12/16 09:12:12;;;;;;;22.83;14.13;;;7.50;99.90;;;;;;8289087;28;20038;-72
2020/12/16 09:16:23;;;;;;;20.13;13.15;;;7.70;99.90;;;;;;8290250;28;20026;-72
2020/12/16 09:20:24;;;;;;;19.45;12.18;;;7.60;99.90;;;;;;8291552;28;20029;-72
2020/12/16 09:24:25;;;;;;;19.73;13.50;;;7.70;99.90;;;;;;8293802;28;20084;-72
2020/12/16 09:28:34;;;;;;;21.52;13.90;;;7.90;99.90;;;;;;8309263;28;20021;-72
2020/12/16 09:32:35;;;;;;;22.20;14.45;;;8.10;99.90;;;;;;8277519;28;20621;-72
2020/12/16 09:36:35;;;;;;;22.27;14.70;;;8.20;99.90;;;;;;8279037;28;20030;-76
2020/12/16 09:40:37;;;;;;;22.25;14.35;;;8.10;99.90;;;;;;8292656;28;20046;-71
2020/12/16 09:44:38;;;;;;;22.25;14.63;;;8.20;99.90;;;;;;8291603;28;20053;-69
2020/12/16 09:48:40;;;;;;;22.25;14.25;;;8.50;99.90;;;;;;8292162;28;20391;-69
2020/12/16 09:52:41;;;;;;;17.85;12.57;;;8.80;99.90;;;;;;8291956;28;20566;-69
2020/12/16 09:56:43;;;;;;;19.60;13.25;;;9.20;99.90;;;;;;8303313;28;20025;-68
2020/12/16 10:00:43;;;;;;;33.92;21.25;;;9.30;99.90;;;;;;8286023;28;20048;-69
2020/12/16 10:04:45;;;;;;;17.58;12.65;;;9.10;99.90;;;;;;8292213;28;20018;-69
2020/12/16 10:08:46;;;;;;;21.27;14.95;;;9.10;99.90;;;;;;8297726;28;20068;-69
2020/12/16 10:12:47;;;;;;;20.20;13.70;;;9.00;99.90;;;;;;8314049;28;20487;-69
2020/12/16 10:16:48;;;;;;;17.55;12.90;;;9.00;99.90;;;;;;8296421;28;20017;-69
2020/12/16 10:20:49;;;;;;;18.90;11.80;;;9.20;99.90;;;;;;8298228;28;20029;-69
2020/12/16 10:24:49;;;;;;;15.48;11.30;;;10.30;99.90;;;;;;8298504;28;20061;-70
2020/12/16 10:28:50;;;;;;;;;;;13.50;99.90;;;;;;8298805;28;20026;-69
2020/12/16 10:32:51;;;;;;;;;;;16.50;99.90;;;;;;8296991;28;19909;-69
2020/12/16 10:36:52;;;;;;;;;;;18.50;99.90;;;;;;8288365;28;19909;-69
2020/12/16 10:40:52;;;;;;;;;;;20.10;97.50;;;;;;8285683;28;19910;-69
2020/12/16 10:44:53;;;;;;;;;;;20.70;92.70;;;;;;8283264;28;19917;-70
2020/12/16 10:48:53;;;;;;;;;;;21.30;88.10;;;;;;8272367;28;19989;-68
2020/12/16 10:52:54;;;;;;;;;;;22.50;82.40;;;;;;8281562;28;19913;-70
2020/12/16 10:56:54;;;;;;;;;;;23.60;73.70;;;;;;8277335;28;19906;-68
2020/12/16 11:00:55;;;;;;;;;;;;;;;;;;8288663;28;19913;-71
2020/12/16 11:04:56;;;;;;;;;;;;;;;;;;8311211;28;20357;-70
2020/12/16 11:08:57;;;;;;;;;;;24.60;63.90;;;;;;8294999;28;19925;-71
2020/12/16 11:12:57;;;;;;;;;;;25.30;61.00;;;;;;8285491;28;19914;-71
2020/12/16 11:16:58;;;;;;;10.68;8.90;;;24.90;60.50;;;;;;8278237;28;20453;-70
2020/12/16 11:20:58;;;;;;;8.95;6.90;;;22.60;66.70;;;;;;8291357;28;20097;-70
2020/12/16 11:24:59;;;;;;;11.63;7.45;;;;;;;;;;8274637;28;20022;-69
2020/12/16 11:29:00;;;;;;;12.63;8.23;;;21.70;68.80;;;;;;8277396;28;20034;-69
2020/12/16 11:33:00;;;;;;;11.15;7.40;;;22.00;69.40;;;;;;8291215;28;20044;-69
2020/12/16 11:37:02;;;;;;;12.27;8.60;;;22.80;66.20;;;;;;8281958;28;20023;-69
2020/12/16 11:41:04;;;;;;;9.07;7.15;;;22.30;67.40;;;;;;8265405;28;20069;-70
2020/12/16 11:45:05;;;;;;;10.55;8.25;;;22.10;67.50;;;;;;8291585;28;20042;-69
2020/12/16 11:49:06;;;;;;;7.68;5.70;;;22.30;68.80;;;;;;8280008;28;20026;-73
2020/12/16 11:53:07;;;;;;;7.03;5.30;;;;;;;;;;8288668;28;20061;-73
2020/12/16 11:57:07;;;;;;;7.10;5.00;;;24.60;61.80;;;;;;8285090;28;20041;-75
2020/12/16 12:01:11;;;;;;;7.15;5.95;;;24.40;60.00;;;;;;8292032;28;20069;-74
2020/12/16 12:05:13;;;;;;;6.85;5.57;;;23.70;61.00;;;;;;8295453;28;20018;-74
2020/12/16 12:09:14;;;;;;;5.97;5.15;;;22.70;64.30;;;;;;8295339;28;20096;-75
2020/12/16 12:13:14;;;;;;;6.60;5.40;;;22.90;64.20;;;;;;8296492;28;20109;-73
2020/12/16 12:17:15;;;;;;;7.30;5.68;;;22.40;67.10;;;;;;8293712;28;20026;-73
2020/12/16 12:21:17;;;;;;;7.03;5.53;;;21.80;67.80;;;;;;8277467;28;20027;-76
2020/12/16 12:25:18;;;;;;;6.68;5.82;;;20.90;70.50;;;;;;8261834;28;20033;-73
2020/12/16 12:29:19;;;;;;;6.85;5.30;;;20.10;73.70;;;;;;8282484;28;20447;-73
2020/12/16 12:33:19;;;;;;;6.15;5.07;;;20.80;71.30;;;;;;8285806;28;20031;-73
2020/12/16 12:37:20;;;;;;;5.90;5.20;;;20.50;72.90;;;;;;8262465;28;20066;-74
2020/12/16 12:41:21;;;;;;;6.85;5.03;;;21.40;70.60;;;;;;8276175;28;20022;-75
2020/12/16 12:45:22;;;;;;;7.22;5.45;;;22.10;67.50;;;;;;8276946;28;20030;-75
2020/12/16 12:49:23;;;;;;;6.82;5.13;;;21.30;69.10;;;;;;8292151;28;20030;-73
2020/12/16 12:53:23;;;;;;;5.97;5.00;;;20.20;71.80;;;;;;8276169;28;20041;-74
2020/12/16 12:57:24;;;;;;;10.15;5.28;;;18.90;77.00;;;;;;8285096;28;20069;-73
2020/12/16 13:01:25;;;;;;;10.43;4.72;;;19.20;77.20;;;;;;8274008;28;20022;-72
2020/12/16 13:05:26;;;;;;;6.18;4.55;;;19.30;76.20;;;;;;8270020;28;20041;-75
2020/12/16 13:09:26;;;;;;;6.18;4.05;;;19.70;75.80;;;;;;8278184;28;20026;-73
2020/12/16 13:13:27;;;;;;;5.78;3.63;;;20.80;73.40;;;;;;8259631;28;20440;-73
2020/12/16 13:17:28;;;;;;;6.50;4.47;;;21.90;67.50;;;;;;8283915;28;20030;-74
2020/12/16 13:21:29;;;;;;;6.53;4.40;;;21.00;69.80;;;;;;8262577;28;20030;-73
2020/12/16 13:25:29;;;;;;;15.40;5.68;;;20.90;70.50;;;;;;8272603;28;20049;-74
2020/12/16 13:29:30;;;;;;;7.50;6.00;;;22.20;68.10;;;;;;8272712;28;20069;-73
2020/12/16 13:33:32;;;;;;;7.50;6.40;;;24.20;62.70;;;;;;8282258;28;20034;-74
2020/12/16 13:37:32;;;;;;;7.30;6.47;;;26.10;58.60;;;;;;8277135;28;20429;-74
2020/12/16 13:41:33;;;;;;;8.63;7.25;;;26.90;55.50;;;;;;8269394;28;20029;-75
2020/12/16 13:45:34;;;;;;;9.52;7.88;;;25.80;56.00;;;;;;8280095;28;20073;-74
2020/12/16 13:49:35;;;;;;;11.45;8.93;;;22.70;62.00;;;;;;8262201;28;20026;-74
2020/12/16 13:53:36;;;;;;;14.20;10.75;;;;;;;;;;8272680;28;20109;-74
2020/12/16 13:57:37;;;;;;;12.63;9.93;;;18.30;77.80;;;;;;8293663;28;20029;-73
2020/12/16 14:01:37;;;;;;;12.38;9.63;;;16.80;85.40;;;;;;8293431;28;20034;-73
2020/12/16 14:05:38;;;;;;;13.77;10.27;;;15.40;91.10;;;;;;8294165;28;20025;-74
2020/12/16 14:09:38;;;;;;;17.10;13.13;;;14.00;95.10;;;;;;8293510;28;20022;-74
2020/12/16 14:13:40;;;;;;;20.23;15.57;;;13.00;98.80;;;;;;8293122;28;20040;-72
2020/12/16 14:17:41;;;;;;;22.00;15.85;;;12.50;99.90;;;;;;8279864;28;20081;-73
2020/12/16 14:21:41;;;;;;;21.67;15.05;;;11.80;99.90;;;;;;8290575;28;20030;-73
2020/12/16 14:25:42;;;;;;;22.60;15.65;;;11.20;99.90;;;;;;8292698;28;20053;-72
2020/12/16 14:29:42;;;;;;;25.08;16.77;;;10.60;99.90;;;;;;8281645;28;20055;-74
2020/12/16 14:33:43;;;;;;;26.70;17.15;;;9.90;99.90;;;;;;8287534;28;20051;-72
2020/12/16 14:37:45;;;;;;;23.05;14.48;;;9.50;99.90;;;;;;8281635;28;20101;-72
2020/12/16 14:41:59;;;;;;;24.48;15.90;;;9.20;99.90;;;;;;8286530;28;20053;-72
2020/12/16 14:46:00;;;;;;;25.45;16.83;;;8.80;99.90;;;;;;8292255;28;20026;-72
2020/12/16 14:50:00;;;;;;;24.77;15.68;;;8.50;99.90;;;;;;8292227;28;20064;-71
2020/12/16 14:54:01;;;;;;;23.67;15.90;;;8.30;99.90;;;;;;8281267;28;20081;-72
2020/12/16 14:58:03;;;;;;;23.98;16.10;;;8.10;99.90;;;;;;8280391;28;20060;-74
2020/12/16 15:02:03;;;;;;;24.90;15.15;;;7.80;99.90;;;;;;8280578;28;20117;-73
2020/12/16 15:06:04;;;;;;;23.23;16.60;;;7.40;99.90;;;;;;8290811;28;20038;-72
2020/12/16 15:10:05;;;;;;;26.10;17.15;;;6.80;99.90;;;;;;8311420;28;20076;-72
2020/12/16 15:14:07;;;;;;;26.95;16.13;;;6.50;99.90;;;;;;8294439;28;20454;-72
2020/12/16 15:18:07;;;;;;;51.50;16.85;;;6.40;99.90;;;;;;8289982;28;20030;-72
2020/12/16 15:22:08;;;;;;;53.35;17.60;;;6.20;99.90;;;;;;8290704;28;20072;-73
2020/12/16 15:26:08;;;;;;;33.05;15.40;;;6.10;99.90;;;;;;8291742;28;20083;-72
2020/12/16 15:30:12;;;;;;;49.58;19.75;;;5.80;99.90;;;;;;8293549;28;20025;-73
2020/12/16 15:34:12;;;;;;;78.47;18.67;;;5.60;99.90;;;;;;8295302;28;20087;-73
2020/12/16 15:38:13;;;;;;;54.58;17.45;;;5.80;99.90;;;;;;8303950;28;20022;-73
2020/12/16 15:42:13;;;;;;;52.30;17.77;;;5.90;99.90;;;;;;8294583;28;20128;-73
2020/12/16 15:46:16;;;;;;;36.85;18.13;;;5.90;99.90;;;;;;8299746;28;20057;-73
2020/12/16 15:50:17;;;;;;;32.83;18.30;;;5.90;99.90;;;;;;8287711;28;20034;-73
2020/12/16 15:54:18;;;;;;;108.00;16.65;;;5.90;99.90;;;;;;8285118;28;20031;-73
2020/12/16 15:58:19;;;;;;;192.65;17.60;;;6.00;99.90;;;;;;8290648;28;20395;-73
2020/12/16 16:02:19;;;;;;;77.10;19.02;;;6.00;99.90;;;;;;8286833;28;20204;-68
2020/12/16 16:06:20;;;;;;;155.05;19.48;;;5.80;99.90;;;;;;8293817;28;20123;-68
2020/12/16 16:10:21;;;;;;;153.20;18.90;;;5.80;99.90;;;;;;8292249;28;20041;-72
2020/12/16 16:14:21;;;;;;;132.55;17.95;;;5.70;99.90;;;;;;8309734;28;20315;-73
2020/12/16 16:18:22;;;;;;;279.17;21.63;;;5.80;99.90;;;;;;8292662;28;20022;-68
2020/12/16 16:22:23;;;;;;;134.98;16.70;;;5.90;99.90;;;;;;8291829;28;20030;-68
2020/12/16 16:26:23;;;;;;;270.52;19.92;;;5.70;99.90;;;;;;8292490;28;20030;-69
2020/12/16 16:30:26;;;;;;;95.82;15.90;;;5.70;99.90;;;;;;8293663;28;20112;-71
2020/12/16 16:34:26;;;;;;;296.05;19.63;;;5.50;99.90;;;;;;8292679;28;20032;-70
2020/12/16 16:38:27;;;;;;;115.82;18.77;;;5.30;99.90;;;;;;8293890;28;20029;-70
2020/12/16 16:42:27;;;;;;;123.38;18.05;;;5.30;99.90;;;;;;8295471;28;20026;-69
2020/12/16 16:46:31;;;;;;;121.88;18.35;;;5.30;99.90;;;;;;8293200;28;20029;-72
2020/12/16 16:50:32;;;;;;;81.50;17.23;;;5.20;99.90;;;;;;8294457;28;20112;-75
2020/12/16 16:54:32;;;;;;;78.28;18.27;;;5.20;99.90;;;;;;8296021;28;20025;-75
2020/12/16 16:58:33;;;;;;;36.45;17.02;;;5.10;99.90;;;;;;8294227;28;20026;-75
2020/12/16 17:02:33;;;;;;;57.78;16.65;;;4.70;99.90;;;;;;8295217;28;20021;-75
2020/12/16 17:06:34;;;;;;;46.53;15.32;;;4.60;99.90;;;;;;8276036;28;20545;-75
2020/12/16 17:10:35;;;;;;;58.00;16.00;;;4.50;99.90;;;;;;8284972;28;20108;-74
2020/12/16 17:14:35;;;;;;;69.60;18.25;;;4.60;99.90;;;;;;8286547;28;20030;-75
2020/12/16 17:18:36;;;;;;;40.33;16.67;;;4.40;99.90;;;;;;8288318;28;20029;-75
2020/12/16 17:22:36;;;;;;;64.22;19.33;;;4.50;99.90;;;;;;8294962;28;20030;-75
2020/12/16 17:26:37;;;;;;;49.80;17.00;;;4.30;99.90;;;;;;8294483;28;20026;-75
2020/12/16 17:30:38;;;;;;;64.47;18.20;;;4.30;99.90;;;;;;8292712;28;20041;-75
2020/12/16 17:34:38;;;;;;;67.47;21.23;;;4.30;99.90;;;;;;8293544;28;20033;-75
2020/12/16 17:38:39;;;;;;;70.80;19.63;;;4.10;99.90;;;;;;8292711;28;20076;-75
2020/12/16 17:42:40;;;;;;;78.70;19.10;;;4.20;99.90;;;;;;8293542;28;20064;-75
2020/12/16 17:46:42;;;;;;;46.92;19.33;;;4.20;99.90;;;;;;8282665;28;20084;-75
2020/12/16 17:50:43;;;;;;;72.68;18.63;;;4.20;99.90;;;;;;8289031;28;20053;-75
2020/12/16 17:54:44;;;;;;;117.30;18.48;;;4.30;99.90;;;;;;8270674;28;20129;-74
2020/12/16 17:58:45;;;;;;;94.53;20.27;;;4.30;99.90;;;;;;8293525;28;20530;-76
2020/12/16 18:02:46;;;;;;;90.53;18.27;;;4.30;99.90;;;;;;8280424;28;20025;-74
2020/12/16 18:06:47;;;;;;;151.27;19.15;;;4.30;99.90;;;;;;8286116;28;20088;-74
2020/12/16 18:10:48;;;;;;;145.20;23.65;;;4.40;99.90;;;;;;8277775;28;20034;-75
2020/12/16 18:14:49;;;;;;;165.32;25.42;;;4.50;99.90;;;;;;8278967;28;20068;-74
2020/12/16 18:18:50;;;;;;;139.07;23.10;;;4.40;99.90;;;;;;8258782;28;20058;-75
2020/12/16 18:22:55;;;;;;;107.13;19.67;;;4.40;99.90;;;;;;8274809;28;20036;-75
2020/12/16 18:26:56;;;;;;;87.43;16.98;;;4.30;99.90;;;;;;8280382;28;20053;-74
2020/12/16 18:30:56;;;;;;;122.28;19.30;;;4.50;99.90;;;;;;8282093;28;20030;-74
2020/12/16 18:34:57;;;;;;;110.50;18.67;;;4.30;99.90;;;;;;8269904;28;20049;-74
2020/12/16 18:38:58;;;;;;;59.95;19.65;;;4.30;99.90;;;;;;8265191;28;20113;-74
2020/12/16 18:43:01;;;;;;;131.38;22.90;;;4.00;99.90;;;;;;8279988;28;20039;-75
2020/12/16 18:47:02;;;;;;;110.30;25.63;;;3.90;99.90;;;;;;8294730;28;20034;-75
2020/12/16 18:51:03;;;;;;;72.40;21.60;;;4.00;99.90;;;;;;8286693;28;20036;-75
2020/12/16 18:55:05;;;;;;;122.22;23.02;;;4.10;99.90;;;;;;8266980;28;20035;-75
2020/12/16 18:59:06;;;;;;;156.52;22.92;;;4.20;99.90;;;;;;8272896;28;20026;-75
2020/12/16 19:03:06;;;;;;;103.65;21.48;;;4.20;99.90;;;;;;8297318;28;20057;-74
2020/12/16 19:07:07;;;;;;;115.57;19.77;;;4.30;99.90;;;;;;8289013;28;20040;-73
2020/12/16 19:11:07;;;;;;;110.10;18.35;;;4.20;99.90;;;;;;8280338;28;20026;-70
2020/12/16 19:15:08;;;;;;;221.90;18.65;;;4.30;99.90;;;;;;8303104;28;20121;-71
2020/12/16 19:19:08;;;;;;;115.55;16.85;;;4.30;99.90;;;;;;8287905;28;20030;-74
2020/12/16 19:23:09;;;;;;;35.47;14.48;;;4.30;99.90;;;;;;8288336;28;20056;-76
2020/12/16 19:27:10;;;;;;;152.20;18.70;;;4.30;99.90;;;;;;8296556;28;20031;-72
2020/12/16 19:31:11;;;;;;;74.10;17.00;;;4.20;99.90;;;;;;8278338;28;20031;-70
2020/12/16 19:35:12;;;;;;;98.03;20.27;;;4.20;99.90;;;;;;8269533;28;20033;-70
2020/12/16 19:39:14;;;;;;;99.80;18.92;;;4.20;99.90;;;;;;8266556;28;20234;-70
2020/12/16 19:43:14;;;;;;;72.90;18.42;;;4.20;99.90;;;;;;8275956;28;20076;-70
2020/12/16 19:47:16;;;;;;;38.53;16.35;;;3.90;99.90;;;;;;8295170;28;20375;-70
2020/12/16 19:51:16;;;;;;;55.05;17.58;;;4.00;99.90;;;;;;8264615;28;20034;-70
2020/12/16 19:55:17;;;;;;;97.93;19.13;;;3.80;99.90;;;;;;8263992;28;20042;-70
2020/12/16 19:59:18;;;;;;;58.22;19.30;;;3.70;99.90;;;;;;8260377;28;20030;-71
2020/12/16 20:03:19;;;;;;;62.22;18.08;;;3.70;99.90;;;;;;8263973;28;20503;-70
2020/12/16 20:07:19;;;;;;;51.08;16.65;;;3.90;99.90;;;;;;8258467;28;20088;-70
2020/12/16 20:11:20;;;;;;;57.60;18.10;;;3.90;99.90;;;;;;8280890;28;20034;-70
2020/12/16 20:15:21;;;;;;;80.82;18.23;;;3.80;99.90;;;;;;8288673;28;20056;-70
2020/12/16 20:19:22;;;;;;;47.90;17.45;;;3.70;99.90;;;;;;8283131;28;20373;-70
2020/12/16 20:23:23;;;;;;;47.25;17.95;;;3.60;99.90;;;;;;8278188;28;20030;-70
2020/12/16 20:27:24;;;;;;;64.68;17.33;;;3.70;99.90;;;;;;8294872;28;20057;-70
2020/12/16 20:31:24;;;;;;;72.97;16.88;;;3.60;99.90;;;;;;8278702;28;20164;-70
2020/12/16 20:35:25;;;;;;;52.17;17.25;;;3.70;99.90;;;;;;8277224;28;20080;-70
2020/12/16 20:39:26;;;;;;;73.68;17.33;;;3.60;99.90;;;;;;8288555;28;20450;-70
2020/12/16 20:43:26;;;;;;;99.15;18.10;;;3.70;99.90;;;;;;8289427;28;20040;-71
2020/12/16 20:47:27;;;;;;;77.93;17.20;;;3.60;99.90;;;;;;8291174;28;20026;-70